Terminal Aerodrome Forecast
Issued by NWS

Home | Current Version | Previous Version | Graphics & Text | Print | Product List | Glossary On
Versions: 1 2 3 4 5 6 7 8 9 10 11 12 13
148
FTUS43 KICT 211620 AAA
TAFHUT
TAF AMD
KHUT 211620Z 2116/2212 07020G28KT P6SM OVC100
     FM211730 06015KT P6SM OVC050
     FM212200 04013KT 5SM -RA SCT020 OVC035
     FM220300 04017KT P6SM BKN050=

USA.gov is the U.S. government's official web portal to all federal, state and local government web resources and services.